createdAt,value
2018-05-25T00:01:21.676Z,3.23
2018-05-25T00:03:50.092Z,3.33
2018-05-25T00:06:18.554Z,3.50
2018-05-25T00:08:46.972Z,2.90
2018-05-25T00:11:15.412Z,3.10
2018-05-25T00:13:43.869Z,3.07
2018-05-25T00:16:12.287Z,3.30
2018-05-25T00:18:40.694Z,3.13
2018-05-25T00:21:09.170Z,3.10
2018-05-25T00:23:37.588Z,2.90
2018-05-25T00:26:06.044Z,3.30
2018-05-25T00:28:34.496Z,3.20
2018-05-25T00:31:02.926Z,3.30
2018-05-25T00:33:31.341Z,3.13
2018-05-25T00:35:59.834Z,3.33
2018-05-25T00:38:28.245Z,2.97
2018-05-25T00:40:56.666Z,3.60
2018-05-25T00:43:25.130Z,3.30
2018-05-25T00:45:53.543Z,3.33
2018-05-25T00:48:21.974Z,3.10
2018-05-25T00:50:50.446Z,3.20
2018-05-25T00:53:18.870Z,3.70
2018-05-25T00:55:47.294Z,3.20
2018-05-25T00:58:15.748Z,3.10
2018-05-25T01:00:44.164Z,2.90
2018-05-25T01:03:12.588Z,3.10
2018-05-25T01:05:41.287Z,3.27
2018-05-25T01:08:09.697Z,3.20
2018-05-25T01:10:38.116Z,3.10
2018-05-25T01:13:06.569Z,3.20
2018-05-25T01:15:34.995Z,3.63
2018-05-25T01:18:03.408Z,3.80
2018-05-25T01:20:31.864Z,4.03
2018-05-25T01:23:00.272Z,4.13
2018-05-25T01:25:28.705Z,3.60
2018-05-25T01:27:57.183Z,3.70
2018-05-25T01:30:25.622Z,4.20
2018-05-25T01:32:54.046Z,3.73
2018-05-25T01:35:22.522Z,3.77
2018-05-25T01:37:50.944Z,3.90
2018-05-25T01:40:19.364Z,3.83
2018-05-25T01:42:47.836Z,3.97
2018-05-25T01:45:16.262Z,3.93
2018-05-25T01:47:44.679Z,3.97
2018-05-25T01:50:13.297Z,4.00
2018-05-25T01:52:41.735Z,3.87
2018-05-25T01:55:10.160Z,4.00
2018-05-25T01:57:38.625Z,3.70
2018-05-25T02:00:07.086Z,3.70
2018-05-25T02:02:35.504Z,3.90
2018-05-25T02:05:04.174Z,3.97
2018-05-25T02:07:32.604Z,3.70
2018-05-25T02:10:01.032Z,4.27
2018-05-25T02:12:29.488Z,3.97
2018-05-25T02:14:57.904Z,4.30
2018-05-25T02:17:26.328Z,4.00
2018-05-25T02:19:54.784Z,4.20
2018-05-25T02:22:23.206Z,3.70
2018-05-25T02:24:51.630Z,3.97
2018-05-25T02:27:20.085Z,3.93
2018-05-25T02:29:48.501Z,3.57
2018-05-25T02:32:16.920Z,3.60
2018-05-25T02:34:45.380Z,3.70
2018-05-25T02:37:13.809Z,3.57
2018-05-25T02:39:42.240Z,4.10
2018-05-25T02:42:10.705Z,3.73
2018-05-25T02:44:39.129Z,3.77
2018-05-25T02:47:07.549Z,3.80
2018-05-25T02:49:36.029Z,4.00
2018-05-25T02:52:04.485Z,3.90
2018-05-25T02:54:32.908Z,3.47
2018-05-25T02:57:01.384Z,4.03
2018-05-25T02:59:29.810Z,4.30
2018-05-25T03:01:58.268Z,3.93
2018-05-25T03:04:26.731Z,3.50
2018-05-25T03:06:55.159Z,3.70
2018-05-25T03:09:23.585Z,4.33
2018-05-25T03:11:52.053Z,3.80
2018-05-25T03:14:20.472Z,3.77
2018-05-25T03:16:48.892Z,4.10
2018-05-25T03:19:17.371Z,4.10
2018-05-25T03:21:45.809Z,4.40
2018-05-25T03:24:14.236Z,3.90
2018-05-25T03:26:42.700Z,3.77
2018-05-25T03:29:11.141Z,3.90
2018-05-25T03:31:39.566Z,3.53
2018-05-25T03:34:08.032Z,3.50
2018-05-25T03:36:36.460Z,3.53
2018-05-25T03:39:05.801Z,3.77
2018-05-25T03:41:34.259Z,3.70
2018-05-25T03:44:02.695Z,3.67
2018-05-25T03:46:31.120Z,3.70
2018-05-25T03:48:59.599Z,3.33
2018-05-25T03:51:28.028Z,3.53
2018-05-25T03:53:56.456Z,4.10
2018-05-25T03:56:24.913Z,3.90
2018-05-25T03:59:05.053Z,3.73
2018-05-25T04:01:45.265Z,4.30
2018-05-25T04:04:13.688Z,4.00
2018-05-25T04:06:42.102Z,3.90
2018-05-25T04:09:10.558Z,4.37
2018-05-25T04:11:38.988Z,4.33
2018-05-25T04:14:07.397Z,3.80
2018-05-25T04:16:35.870Z,4.07
2018-05-25T04:19:04.292Z,4.60
2018-05-25T04:21:32.703Z,4.10
2018-05-25T04:24:01.169Z,4.23
2018-05-25T04:26:29.585Z,3.93
2018-05-25T04:28:58.008Z,4.10
2018-05-25T04:31:26.462Z,4.03
2018-05-25T04:33:54.884Z,3.80
2018-05-25T04:36:23.305Z,4.03
2018-05-25T04:38:51.762Z,4.27
2018-05-25T04:41:20.181Z,3.87
2018-05-25T04:43:48.607Z,4.67
2018-05-25T04:46:17.076Z,4.53
2018-05-25T04:48:45.509Z,4.30
2018-05-25T04:51:13.928Z,4.30
2018-05-25T04:53:42.602Z,4.00
2018-05-25T04:56:11.011Z,4.53
2018-05-25T04:58:39.424Z,4.60
2018-05-25T05:01:07.899Z,4.83
2018-05-25T05:03:36.312Z,4.17
2018-05-25T05:06:04.776Z,4.57
2018-05-25T05:08:33.234Z,4.30
2018-05-25T05:11:01.664Z,4.97
2018-05-25T05:13:30.091Z,4.87
2018-05-25T05:15:58.541Z,4.73
2018-05-25T05:18:26.960Z,4.50
2018-05-25T05:20:55.380Z,4.57
2018-05-25T05:23:23.841Z,4.90
2018-05-25T05:25:52.494Z,4.90
2018-05-25T05:28:21.851Z,4.47
2018-05-25T05:30:50.312Z,4.53
2018-05-25T05:33:18.729Z,4.73
2018-05-25T05:35:47.141Z,4.90
2018-05-25T05:38:15.620Z,4.67
2018-05-25T05:40:44.033Z,5.00
2018-05-25T05:43:12.444Z,4.50
2018-05-25T05:45:40.892Z,4.83
2018-05-25T05:48:09.314Z,4.37
2018-05-25T05:50:37.737Z,4.70
2018-05-25T05:53:06.186Z,4.90
2018-05-25T05:55:34.600Z,4.67
2018-05-25T05:58:03.028Z,4.10
2018-05-25T06:00:31.508Z,5.20
2018-05-25T06:02:59.964Z,5.13
2018-05-25T06:05:28.693Z,4.80
2018-05-25T06:07:57.164Z,4.90
2018-05-25T06:10:25.597Z,5.30
2018-05-25T06:12:54.054Z,4.97
2018-05-25T06:15:22.541Z,4.90
2018-05-25T06:17:50.972Z,5.00
2018-05-25T06:20:19.400Z,4.77
2018-05-25T06:22:47.865Z,5.23
2018-05-25T06:25:16.303Z,5.50
2018-05-25T06:27:44.737Z,4.87
2018-05-25T06:30:13.217Z,5.10
2018-05-25T06:32:41.649Z,5.70
2018-05-25T06:35:10.453Z,5.20
2018-05-25T06:37:38.908Z,5.43
2018-05-25T06:40:07.341Z,5.10
2018-05-25T06:42:35.779Z,4.93
2018-05-25T06:45:04.289Z,5.67
2018-05-25T06:47:32.729Z,5.87
2018-05-25T06:50:01.192Z,5.63
2018-05-25T06:52:29.666Z,5.73
2018-05-25T06:54:58.099Z,6.00
2018-05-25T06:57:26.533Z,6.07
2018-05-25T06:59:54.995Z,5.50
2018-05-25T07:02:23.444Z,5.23
2018-05-25T07:04:51.860Z,5.53
2018-05-25T07:07:20.345Z,6.00
2018-05-25T07:09:48.779Z,5.27
2018-05-25T07:12:17.204Z,5.40
2018-05-25T07:14:45.660Z,5.83
2018-05-25T07:17:14.088Z,5.90
2018-05-25T07:19:42.509Z,6.17
2018-05-25T07:22:10.985Z,5.83
2018-05-25T07:24:39.423Z,5.73
2018-05-25T07:27:07.852Z,6.00
2018-05-25T07:29:36.305Z,5.87
2018-05-25T07:32:04.741Z,5.73
2018-05-25T07:34:33.163Z,6.03
2018-05-25T07:37:01.637Z,6.43
2018-05-25T07:39:30.082Z,6.53
2018-05-25T07:41:58.511Z,6.30
2018-05-25T07:44:26.984Z,6.23
2018-05-25T07:46:55.400Z,6.07
2018-05-25T07:49:23.824Z,6.23
2018-05-25T07:51:52.295Z,6.10
2018-05-25T07:54:20.758Z,6.30
2018-05-25T07:56:49.186Z,6.20
2018-05-25T07:59:17.665Z,6.20
2018-05-25T08:01:46.093Z,5.97
2018-05-25T08:04:14.520Z,6.30
2018-05-25T08:06:42.988Z,5.77
2018-05-25T08:09:11.415Z,6.00
2018-05-25T08:11:39.838Z,6.27
2018-05-25T08:14:08.300Z,5.87
2018-05-25T08:16:36.725Z,6.37
2018-05-25T08:19:05.153Z,6.53
2018-05-25T08:21:33.651Z,6.27
2018-05-25T08:24:02.081Z,5.90
2018-05-25T08:26:30.500Z,6.70
2018-05-25T08:28:58.957Z,5.93
2018-05-25T08:31:27.384Z,5.77
2018-05-25T08:33:55.808Z,5.70
2018-05-25T08:36:24.281Z,5.70
2018-05-25T08:38:52.705Z,6.07
2018-05-25T08:41:21.157Z,5.77
2018-05-25T08:43:49.640Z,5.70
2018-05-25T08:46:18.063Z,5.93
2018-05-25T08:48:46.506Z,5.90
2018-05-25T08:51:14.968Z,6.00
2018-05-25T08:53:43.391Z,5.70
2018-05-25T08:56:12.561Z,5.40
2018-05-25T08:58:41.065Z,5.70
2018-05-25T09:01:09.488Z,5.93
2018-05-25T09:03:37.910Z,5.93
2018-05-25T09:06:06.381Z,5.43
2018-05-25T09:08:34.815Z,5.97
2018-05-25T09:11:03.268Z,5.60
2018-05-25T09:13:31.749Z,5.60
2018-05-25T09:16:00.179Z,5.37
2018-05-25T09:18:28.593Z,4.93
2018-05-25T09:20:57.069Z,5.30
2018-05-25T09:23:25.501Z,5.20
2018-05-25T09:25:53.925Z,5.90
2018-05-25T09:28:22.545Z,5.40
2018-05-25T09:30:51.025Z,6.07
2018-05-25T09:33:19.452Z,5.73
2018-05-25T09:35:47.928Z,5.60
2018-05-25T09:38:16.344Z,5.43
2018-05-25T09:40:44.772Z,5.90
2018-05-25T09:43:13.286Z,5.63
2018-05-25T09:45:41.710Z,5.50
2018-05-25T09:48:10.133Z,5.93
2018-05-25T09:50:38.590Z,6.43
2018-05-25T09:53:07.016Z,5.83
2018-05-25T09:55:35.462Z,5.80
2018-05-25T09:58:03.927Z,5.33
2018-05-25T10:00:32.352Z,5.80
2018-05-25T10:03:00.798Z,5.90
2018-05-25T10:05:29.325Z,5.72
2018-05-25T10:07:57.753Z,5.05
2018-05-25T10:10:26.211Z,6.10
2018-05-25T10:12:54.688Z,5.70
2018-05-25T10:15:23.104Z,5.32
2018-05-25T10:17:51.544Z,5.78
2018-05-25T10:20:20.024Z,5.62
2018-05-25T10:22:48.445Z,5.85
2018-05-25T10:25:16.867Z,5.35
2018-05-25T10:27:45.337Z,5.75
2018-05-25T10:30:13.761Z,5.25
2018-05-25T10:32:42.186Z,5.30
2018-05-25T10:35:10.713Z,6.00
2018-05-25T10:37:39.096Z,5.35
2018-05-25T10:40:07.549Z,5.07
2018-05-25T10:42:36.010Z,5.47
2018-05-25T10:45:04.444Z,5.25
2018-05-25T10:47:32.868Z,5.70
2018-05-25T10:50:01.337Z,5.05
2018-05-25T10:52:29.794Z,4.62
2018-05-25T10:54:58.232Z,5.30
2018-05-25T10:57:26.684Z,4.87
2018-05-25T10:59:55.120Z,5.57
2018-05-25T11:02:23.540Z,5.32
2018-05-25T11:04:52.007Z,4.72
2018-05-25T11:07:20.432Z,4.68
2018-05-25T11:09:48.859Z,4.90
2018-05-25T11:12:17.327Z,4.90
2018-05-25T11:14:45.744Z,5.35
2018-05-25T11:17:14.168Z,5.15
2018-05-25T11:19:42.631Z,5.30
2018-05-25T11:22:11.054Z,4.60
2018-05-25T11:24:39.481Z,5.22
2018-05-25T11:27:07.962Z,5.18
2018-05-25T11:29:36.396Z,5.53
2018-05-25T11:32:04.823Z,4.95
2018-05-25T11:34:33.287Z,4.32
2018-05-25T11:37:01.719Z,5.93
2018-05-25T11:39:30.150Z,5.12
2018-05-25T11:41:58.634Z,3.92
2018-05-25T11:44:27.049Z,4.22
2018-05-25T11:46:55.472Z,4.90
2018-05-25T11:49:24.300Z,5.03
2018-05-25T11:51:52.741Z,4.20
2018-05-25T11:54:21.169Z,4.40
2018-05-25T11:56:49.636Z,4.35
2018-05-25T11:59:18.053Z,4.40
2018-05-25T12:01:46.487Z,3.83
2018-05-25T12:04:14.949Z,4.10
2018-05-25T12:06:43.369Z,3.70
2018-05-25T12:09:11.788Z,3.20
2018-05-25T12:11:40.249Z,3.35
2018-05-25T12:14:08.686Z,3.00
2018-05-25T12:16:37.127Z,3.45
2018-05-25T12:19:05.585Z,3.00
2018-05-25T12:21:34.005Z,3.42
2018-05-25T12:24:02.429Z,2.80
2018-05-25T12:26:30.913Z,3.17
2018-05-25T12:28:59.350Z,3.33
2018-05-25T12:31:27.780Z,3.05
2018-05-25T12:33:56.236Z,3.30
2018-05-25T12:36:24.652Z,3.15
2018-05-25T12:38:53.061Z,3.25
2018-05-25T12:41:22.212Z,3.10
2018-05-25T12:43:50.637Z,3.85
2018-05-25T12:46:19.060Z,3.30
2018-05-25T12:48:47.532Z,2.80
2018-05-25T12:51:15.966Z,3.22
2018-05-25T12:53:44.383Z,3.42
2018-05-25T12:56:12.839Z,3.08
2018-05-25T12:58:41.250Z,3.00
2018-05-25T13:01:09.680Z,3.37
2018-05-25T13:03:38.137Z,3.28
2018-05-25T13:06:06.552Z,3.53
2018-05-25T13:08:34.972Z,3.17
2018-05-25T13:11:03.439Z,3.20
2018-05-25T13:13:31.880Z,3.22
2018-05-25T13:16:00.296Z,3.40
2018-05-25T13:18:28.760Z,3.35
2018-05-25T13:20:57.176Z,3.25
2018-05-25T13:23:25.597Z,3.47
2018-05-25T13:25:54.053Z,3.30
2018-05-25T13:28:22.499Z,3.42
2018-05-25T13:30:50.931Z,3.72
2018-05-25T13:33:19.389Z,3.20
2018-05-25T13:35:47.859Z,3.30
2018-05-25T13:38:16.285Z,3.10
2018-05-25T13:40:44.762Z,2.78
2018-05-25T13:43:13.173Z,2.85
2018-05-25T13:45:41.590Z,3.10
2018-05-25T13:48:10.059Z,3.28
2018-05-25T13:50:38.504Z,3.37
2018-05-25T13:53:06.940Z,3.10
2018-05-25T13:55:35.413Z,3.25
2018-05-25T13:58:03.864Z,2.78
2018-05-25T14:00:32.284Z,3.35
2018-05-25T14:03:00.743Z,3.40
2018-05-25T14:05:29.168Z,3.05
2018-05-25T14:07:57.581Z,2.97
2018-05-25T14:10:26.048Z,3.50
2018-05-25T14:12:54.476Z,2.95
2018-05-25T14:15:22.917Z,2.72
2018-05-25T14:17:51.381Z,3.00
2018-05-25T14:20:19.797Z,2.65
2018-05-25T14:22:48.236Z,3.00
2018-05-25T14:25:16.693Z,2.97
2018-05-25T14:27:45.109Z,3.10
2018-05-25T14:30:13.525Z,3.12
2018-05-25T14:32:41.990Z,2.95
2018-05-25T14:35:10.412Z,3.40
2018-05-25T14:37:38.825Z,3.00
2018-05-25T14:40:07.293Z,2.60
2018-05-25T14:42:35.716Z,2.78
2018-05-25T14:45:04.164Z,2.83
2018-05-25T14:47:32.637Z,2.83
2018-05-25T14:50:01.058Z,3.00
2018-05-25T14:52:29.472Z,2.55
2018-05-25T14:54:57.929Z,2.95
2018-05-25T14:57:26.349Z,2.97
2018-05-25T14:59:54.775Z,2.62
2018-05-25T15:02:23.228Z,3.00
2018-05-25T15:04:51.639Z,2.70
2018-05-25T15:07:20.060Z,2.83
2018-05-25T15:09:48.534Z,2.72
2018-05-25T15:12:16.957Z,2.70
2018-05-25T15:14:45.368Z,2.60
2018-05-25T15:17:13.824Z,3.12
2018-05-25T15:19:42.255Z,2.97
2018-05-25T15:22:10.678Z,2.35
2018-05-25T15:24:39.140Z,2.80
2018-05-25T15:27:07.556Z,2.65
2018-05-25T15:29:36.073Z,2.67
2018-05-25T15:32:04.517Z,3.42
2018-05-25T15:34:32.936Z,2.35
2018-05-25T15:37:01.364Z,2.53
2018-05-25T15:39:29.824Z,2.47
2018-05-25T15:41:58.246Z,2.62
2018-05-25T15:44:26.664Z,2.87
2018-05-25T15:46:55.125Z,2.50
2018-05-25T15:49:23.554Z,2.62
2018-05-25T15:51:52.005Z,2.40
2018-05-25T15:54:20.484Z,2.30
2018-05-25T15:56:48.910Z,2.20
2018-05-25T15:59:17.337Z,2.60
2018-05-25T16:01:45.807Z,2.45
2018-05-25T16:04:14.225Z,2.55
2018-05-25T16:06:42.654Z,1.85
2018-05-25T16:09:11.120Z,2.15
2018-05-25T16:11:39.532Z,2.17
2018-05-25T16:14:07.965Z,2.30
2018-05-25T16:16:36.420Z,1.92
2018-05-25T16:19:04.856Z,2.22
2018-05-25T16:21:33.266Z,2.33
2018-05-25T16:24:01.731Z,2.12
2018-05-25T16:26:30.147Z,1.80
2018-05-25T16:28:58.608Z,1.95
2018-05-25T16:31:27.041Z,1.90
2018-05-25T16:33:55.449Z,2.00
2018-05-25T16:36:23.888Z,2.00
2018-05-25T16:38:52.348Z,2.05
2018-05-25T16:41:20.768Z,2.17
2018-05-25T16:43:49.184Z,1.62
2018-05-25T16:46:17.644Z,2.33
2018-05-25T16:48:46.075Z,2.05
2018-05-25T16:51:14.489Z,2.30
2018-05-25T16:53:42.950Z,2.20
2018-05-25T16:56:11.401Z,2.20
2018-05-25T16:58:39.828Z,2.10
2018-05-25T17:01:08.301Z,2.22
2018-05-25T17:03:36.721Z,2.30
2018-05-25T17:06:05.168Z,2.05
2018-05-25T17:08:33.628Z,2.10
2018-05-25T17:11:02.053Z,2.25
2018-05-25T17:13:30.492Z,2.05
2018-05-25T17:15:58.960Z,2.60
2018-05-25T17:18:27.394Z,2.62
2018-05-25T17:20:55.825Z,3.28
2018-05-25T17:23:24.301Z,3.47
2018-05-25T17:25:52.735Z,8.45
2018-05-25T17:28:21.161Z,2.80
2018-05-25T17:30:49.693Z,3.00
2018-05-25T17:33:18.093Z,2.30
2018-05-25T17:35:46.528Z,3.03
2018-05-25T17:38:14.988Z,3.03
2018-05-25T17:40:43.417Z,3.58
2018-05-25T17:43:11.844Z,2.72
2018-05-25T17:45:40.332Z,3.00
2018-05-25T17:48:08.780Z,3.50
2018-05-25T17:50:37.213Z,2.67
2018-05-25T17:53:05.679Z,3.10
2018-05-25T17:55:34.112Z,4.37
2018-05-25T17:58:02.545Z,7.80
2018-05-25T18:00:31.037Z,4.35
2018-05-25T18:02:59.474Z,3.90
2018-05-25T18:05:27.895Z,4.12
2018-05-25T18:07:56.373Z,3.20
2018-05-25T18:10:24.817Z,2.97
2018-05-25T18:12:53.240Z,2.75
2018-05-25T18:15:21.730Z,2.60
2018-05-25T18:17:50.235Z,2.50
2018-05-25T18:20:18.644Z,2.70
2018-05-25T18:22:47.109Z,2.80
2018-05-25T18:25:15.525Z,2.90
2018-05-25T18:27:43.949Z,2.85
2018-05-25T18:30:12.405Z,2.28
2018-05-25T18:32:40.823Z,2.33
2018-05-25T18:35:09.249Z,4.00
2018-05-25T18:37:37.722Z,4.15
2018-05-25T18:40:06.138Z,3.97
2018-05-25T18:42:34.579Z,5.25
2018-05-25T18:45:03.058Z,3.70
2018-05-25T18:47:31.498Z,4.68
2018-05-25T18:49:59.915Z,3.10
2018-05-25T18:52:28.392Z,3.25
2018-05-25T18:54:56.810Z,2.50
2018-05-25T18:57:25.234Z,2.45
2018-05-25T18:59:53.703Z,2.17
2018-05-25T19:02:22.147Z,2.37
2018-05-25T19:04:50.635Z,3.63
2018-05-25T19:07:19.140Z,3.50
2018-05-25T19:09:47.566Z,3.50
2018-05-25T19:12:16.008Z,4.22
2018-05-25T19:14:44.486Z,3.77
2018-05-25T19:17:12.923Z,3.83
2018-05-25T19:19:41.354Z,3.53
2018-05-25T19:22:09.824Z,4.53
2018-05-25T19:24:38.252Z,4.50
2018-05-25T19:27:06.680Z,4.23
2018-05-25T19:29:35.245Z,3.87
2018-05-25T19:32:03.693Z,3.70
2018-05-25T19:34:32.120Z,3.53
2018-05-25T19:37:00.582Z,3.03
2018-05-25T19:39:29.021Z,2.97
2018-05-25T19:41:57.450Z,3.10
2018-05-25T19:44:25.921Z,3.07
2018-05-25T19:46:54.367Z,2.80
2018-05-25T19:49:22.791Z,2.50
2018-05-25T19:51:51.365Z,3.23
2018-05-25T19:54:19.798Z,2.83
2018-05-25T19:56:48.233Z,3.23
2018-05-25T19:59:16.698Z,3.00
2018-05-25T20:01:45.129Z,3.27
2018-05-25T20:04:13.554Z,3.33
2018-05-25T20:06:42.451Z,2.90
2018-05-25T20:09:10.968Z,3.30
2018-05-25T20:11:39.406Z,3.00
2018-05-25T20:14:07.893Z,3.13
2018-05-25T20:16:36.312Z,3.00
2018-05-25T20:19:04.756Z,3.43
2018-05-25T20:21:33.216Z,3.77
2018-05-25T20:24:01.633Z,3.27
2018-05-25T20:26:30.054Z,2.90
2018-05-25T20:28:58.561Z,3.57
2018-05-25T20:31:26.989Z,3.00
2018-05-25T20:33:55.425Z,3.00
2018-05-25T20:36:23.893Z,3.10
2018-05-25T20:38:52.321Z,2.90
2018-05-25T20:41:20.777Z,2.83
2018-05-25T20:43:49.248Z,3.20
2018-05-25T20:46:17.679Z,2.90
2018-05-25T20:48:46.117Z,2.57
2018-05-25T20:51:14.584Z,2.63
2018-05-25T20:53:43.017Z,3.00
2018-05-25T20:56:11.828Z,2.67
2018-05-25T20:58:40.313Z,2.60
2018-05-25T21:01:08.745Z,3.00
2018-05-25T21:03:37.178Z,2.37
2018-05-25T21:06:05.663Z,2.50
2018-05-25T21:08:34.079Z,2.80
2018-05-25T21:11:02.501Z,2.80
2018-05-25T21:13:30.976Z,2.90
2018-05-25T21:15:59.396Z,2.80
2018-05-25T21:18:27.811Z,2.73
2018-05-25T21:20:56.282Z,2.60
2018-05-25T21:23:24.703Z,2.57
2018-05-25T21:25:53.133Z,3.37
2018-05-25T21:30:53.741Z,2.77
2018-05-25T21:33:22.153Z,3.10
2018-05-25T21:35:50.577Z,2.80
2018-05-25T21:38:19.061Z,3.63
2018-05-25T21:40:47.482Z,2.80
2018-05-25T21:43:15.901Z,2.57
2018-05-25T21:45:44.361Z,2.90
2018-05-25T21:48:12.787Z,2.47
2018-05-25T21:50:41.221Z,2.33
2018-05-25T21:53:09.686Z,2.73
2018-05-25T21:55:38.108Z,3.00
2018-05-25T21:58:06.535Z,2.70
2018-05-25T22:00:35.044Z,2.40
2018-05-25T22:03:03.489Z,3.23
2018-05-25T22:05:31.904Z,2.67
2018-05-25T22:08:00.369Z,3.20
2018-05-25T22:10:28.809Z,3.10
2018-05-25T22:12:57.241Z,2.80
2018-05-25T22:15:25.733Z,2.73
2018-05-25T22:17:54.154Z,3.10
2018-05-25T22:20:22.573Z,2.80
2018-05-25T22:22:51.036Z,2.90
2018-05-25T22:25:19.463Z,2.97
2018-05-25T22:27:47.888Z,3.37
2018-05-25T22:30:16.367Z,3.10
2018-05-25T22:32:44.789Z,2.90
2018-05-25T22:35:13.217Z,2.97
2018-05-25T22:37:41.666Z,3.23
2018-05-25T22:40:10.087Z,3.03
2018-05-25T22:42:50.290Z,3.53
2018-05-25T22:45:30.405Z,3.47
2018-05-25T22:48:10.648Z,3.10
2018-05-25T22:50:50.921Z,2.97
2018-05-25T22:53:24.457Z,3.43
2018-05-25T22:55:52.871Z,3.00
2018-05-25T22:58:21.281Z,2.80
2018-05-25T23:00:49.761Z,3.40
2018-05-25T23:03:18.177Z,3.03
2018-05-25T23:05:46.600Z,3.10
2018-05-25T23:08:15.093Z,3.20
2018-05-25T23:10:43.521Z,3.70
2018-05-25T23:13:11.937Z,3.90
2018-05-25T23:15:40.418Z,3.50
2018-05-25T23:18:08.837Z,3.90
2018-05-25T23:20:37.265Z,3.80
2018-05-25T23:23:05.729Z,3.63
2018-05-25T23:25:34.151Z,3.33
2018-05-25T23:28:02.592Z,3.40
2018-05-25T23:30:31.057Z,3.50
2018-05-25T23:32:59.478Z,3.17
2018-05-25T23:35:27.901Z,3.50
2018-05-25T23:37:56.361Z,3.47
2018-05-25T23:40:24.797Z,3.60
2018-05-25T23:42:53.216Z,3.40
2018-05-25T23:45:21.696Z,3.70
2018-05-25T23:47:50.130Z,3.93
2018-05-25T23:50:18.554Z,3.77
2018-05-25T23:52:47.019Z,4.43
2018-05-25T23:55:15.438Z,3.97
2018-05-25T23:57:43.859Z,3.67
